Aérodrome :
LOGIN :

S'inscrire | Disclaimer

   EN    FR    IT 

 










Légende :    VFR   VFR Marginal   IFR   IFR Intensif   IFR Très Intensif
Visi : 
Plafond : 
>= 8 km
>= 3000ft
5 à 8 km
1000 à 3000 ft
1500m à 5 km
500 à 1000 ft
800 à 1500m
200 à 500 ft
< 800m
< 200 ft
Symboles :   Orages  Brouillard  Fortes neiges  Fortes précipitations  Vent > 20 kt
SIGMETs :   Divers  Orages  Givrage  Turbulence  Onde Orograph.  Cendres Volcan.






- Altitude de l'aérodrome : 1470 ft


LSMD - Dubendorf Military

DERNIER METAR :
  • 230650Z 08004KT 020V130 4400 BR OVC006 12/10 Q1017 RMK YLO

METARs EXPIRÉS :
  • 230620Z 04003KT 360V070 4300 BR OVC007 12/11 Q1017 RMK GRN
  • 230550Z 03003KT 330V070 5000 BR OVC007 12/10 Q1017 RMK GRN
  • 230520Z 03004KT 350V060 4700 BR OVC007 12/11 Q1017 RMK GRN
  • 230450Z 00000KT 3900 BR OVC007 11/10 Q1017 RMK GRN
  • 230420Z AUTO 00000KT 3300NDV BR BKN007 10/10 Q1017 RMK

Prévision TAF périmée.



MET'MAP, la Météo Aéronautique d'un coup d'oeil ! - Copyright ORBIFLY Décembre 2007 - Disclaimer

ORBIFLY MET'MAP TEAM :

Programmation & Développement : Alexandra Zaïnal
Conception & Développement : Baudouin d'Aumeries
Co-Programmation & Développement : Marc-Olivier Méhu
Soutien technique & logistique : Manuel Goepfert

Contact : metmap@orbifly.com




SOURCES & CREDITS :

   NOAA